Ile Loop Chesterfield, New Caledonia
Current Conditions -  °F | °C
As of 3:00 PM on Sunday 21 Dec 2014 (Local Time) from NWWW Reporting Station
Light Rain Light Rain  
Wind Chill: 77°   Ceiling: 9000
Heat Index: 78°   Visibility: 6mi
Dew Point: 73°   Wind: 2mph
Humidity: 89%   Direction: NA
Pressure: 29.77"   Gusts: NA
Location:  19.97°S, 158.52°E
Report Text: NWWW 210400Z AUTO VRB02KT 9999 -RA FEW035/// SCT058///OVC090/// ///CB 25/23 Q1008
Loading
Personal Weather Stations






























Interactive Weather Map New forecast layout! Learn more

10-Day Weather Forecast

Advertisements
Track Severe Weather on mobile